sensor_id;sensor_type;location;lat;lon;timestamp;pressure;altitude;pressure_sealevel;temperature;humidity
68077;BME280;54866;53.458;14.540;2023-04-04T00:01:46;102236.98;;;-2.29;83.28
68077;BME280;54866;53.458;14.540;2023-04-04T00:04:16;102232.32;;;-2.32;83.26
68077;BME280;54866;53.458;14.540;2023-04-04T00:06:45;102236.45;;;-2.32;83.26
68077;BME280;54866;53.458;14.540;2023-04-04T00:09:15;102235.08;;;-2.32;83.28
68077;BME280;54866;53.458;14.540;2023-04-04T00:11:45;102233.52;;;-2.33;83.32
68077;BME280;54866;53.458;14.540;2023-04-04T00:14:15;102230.23;;;-2.33;83.46
68077;BME280;54866;53.458;14.540;2023-04-04T00:16:45;102225.58;;;-2.33;83.42
68077;BME280;54866;53.458;14.540;2023-04-04T00:19:14;102222.65;;;-2.33;83.26
68077;BME280;54866;53.458;14.540;2023-04-04T00:21:45;102220.58;;;-2.33;83.26
68077;BME280;54866;53.458;14.540;2023-04-04T00:24:14;102215.58;;;-2.33;83.56
68077;BME280;54866;53.458;14.540;2023-04-04T00:26:44;102215.23;;;-2.33;83.45
68077;BME280;54866;53.458;14.540;2023-04-04T00:29:14;102211.09;;;-2.31;83.49
68077;BME280;54866;53.458;14.540;2023-04-04T00:31:44;102206.08;;;-2.30;83.38
68077;BME280;54866;53.458;14.540;2023-04-04T00:34:13;102204.86;;;-2.30;83.38
68077;BME280;54866;53.458;14.540;2023-04-04T00:36:43;102204.00;;;-2.29;83.34
68077;BME280;54866;53.458;14.540;2023-04-04T00:39:13;102201.23;;;-2.29;83.71
68077;BME280;54866;53.458;14.540;2023-04-04T00:41:43;102201.23;;;-2.27;83.66
68077;BME280;54866;53.458;14.540;2023-04-04T00:44:12;102198.64;;;-2.26;83.62
68077;BME280;54866;53.458;14.540;2023-04-04T00:46:42;102199.52;;;-2.25;83.58
68077;BME280;54866;53.458;14.540;2023-04-04T00:49:11;102195.38;;;-2.24;83.64
68077;BME280;54866;53.458;14.540;2023-04-04T00:51:41;102196.77;;;-2.24;83.90
68077;BME280;54866;53.458;14.540;2023-04-04T00:54:11;102193.66;;;-2.24;83.58
68077;BME280;54866;53.458;14.540;2023-04-04T00:56:40;102190.03;;;-2.24;83.83
68077;BME280;54866;53.458;14.540;2023-04-04T00:59:10;102185.37;;;-2.24;83.85
68077;BME280;54866;53.458;14.540;2023-04-04T01:01:40;102189.17;;;-2.24;83.73
68077;BME280;54866;53.458;14.540;2023-04-04T01:04:09;102182.09;;;-2.24;83.85
68077;BME280;54866;53.458;14.540;2023-04-04T01:06:39;102181.57;;;-2.25;84.05
68077;BME280;54866;53.458;14.540;2023-04-04T01:09:09;102179.48;;;-2.26;84.11
68077;BME280;54866;53.458;14.540;2023-04-04T01:11:39;102176.55;;;-2.27;84.33
68077;BME280;54866;53.458;14.540;2023-04-04T01:14:08;102176.38;;;-2.28;84.38
68077;BME280;54866;53.458;14.540;2023-04-04T01:16:38;102172.41;;;-2.30;84.33
68077;BME280;54866;53.458;14.540;2023-04-04T01:19:10;102169.64;;;-2.31;84.64
68077;BME280;54866;53.458;14.540;2023-04-04T01:21:41;102173.45;;;-2.32;84.65
68077;BME280;54866;53.458;14.540;2023-04-04T01:24:13;102175.70;;;-2.34;84.84
68077;BME280;54866;53.458;14.540;2023-04-04T01:26:44;102175.54;;;-2.34;84.82
68077;BME280;54866;53.458;14.540;2023-04-04T01:29:15;102172.95;;;-2.35;84.92
68077;BME280;54866;53.458;14.540;2023-04-04T01:31:50;102172.09;;;-2.37;85.05
68077;BME280;54866;53.458;14.540;2023-04-04T01:34:29;102168.30;;;-2.38;85.17
68077;BME280;54866;53.458;14.540;2023-04-04T01:37:05;102169.17;;;-2.39;85.45
68077;BME280;54866;53.458;14.540;2023-04-04T01:39:42;102169.51;;;-2.40;85.48
68077;BME280;54866;53.458;14.540;2023-04-04T01:42:14;102168.30;;;-2.39;85.49
68077;BME280;54866;53.458;14.540;2023-04-04T01:44:46;102169.16;;;-2.38;85.53
68077;BME280;54866;53.458;14.540;2023-04-04T01:47:16;102165.52;;;-2.38;85.66
68077;BME280;54866;53.458;14.540;2023-04-04T01:49:46;102171.57;;;-2.36;85.59
68077;BME280;54866;53.458;14.540;2023-04-04T01:52:16;102166.22;;;-2.37;85.61
68077;BME280;54866;53.458;14.540;2023-04-04T01:54:45;102164.16;;;-2.37;85.79
68077;BME280;54866;53.458;14.540;2023-04-04T01:57:15;102163.64;;;-2.39;85.64
68077;BME280;54866;53.458;14.540;2023-04-04T01:59:44;102163.30;;;-2.39;86.02
68077;BME280;54866;53.458;14.540;2023-04-04T02:02:14;102161.21;;;-2.39;85.81
68077;BME280;54866;53.458;14.540;2023-04-04T02:04:44;102157.77;;;-2.40;85.94
68077;BME280;54866;53.458;14.540;2023-04-04T02:07:13;102156.39;;;-2.39;86.03
68077;BME280;54866;53.458;14.540;2023-04-04T02:09:43;102155.36;;;-2.41;86.08
68077;BME280;54866;53.458;14.540;2023-04-04T02:12:12;102155.36;;;-2.41;86.14
68077;BME280;54866;53.458;14.540;2023-04-04T02:14:42;102152.44;;;-2.42;86.19
68077;BME280;54866;53.458;14.540;2023-04-04T02:17:12;102148.61;;;-2.43;86.34
68077;BME280;54866;53.458;14.540;2023-04-04T02:19:41;102150.33;;;-2.44;86.41
68077;BME280;54866;53.458;14.540;2023-04-04T02:22:11;102152.23;;;-2.45;86.49
68077;BME280;54866;53.458;14.540;2023-04-04T02:24:41;102144.65;;;-2.47;86.50
68077;BME280;54866;53.458;14.540;2023-04-04T02:27:11;102142.41;;;-2.49;86.46
68077;BME280;54866;53.458;14.540;2023-04-04T02:29:41;102139.66;;;-2.51;86.55
68077;BME280;54866;53.458;14.540;2023-04-04T02:32:10;102137.77;;;-2.53;86.65
68077;BME280;54866;53.458;14.540;2023-04-04T02:34:40;102136.39;;;-2.57;86.72
68077;BME280;54866;53.458;14.540;2023-04-04T02:37:09;102136.58;;;-2.59;86.81
68077;BME280;54866;53.458;14.540;2023-04-04T02:39:39;102132.41;;;-2.67;86.63
68077;BME280;54866;53.458;14.540;2023-04-04T02:42:08;102136.21;;;-2.68;86.71
68077;BME280;54866;53.458;14.540;2023-04-04T02:44:38;102132.79;;;-2.75;86.65
68077;BME280;54866;53.458;14.540;2023-04-04T02:47:08;102136.90;;;-2.83;86.60
68077;BME280;54866;53.458;14.540;2023-04-04T02:49:37;102133.80;;;-2.92;86.82
68077;BME280;54866;53.458;14.540;2023-04-04T02:52:07;102133.79;;;-2.98;87.11
68077;BME280;54866;53.458;14.540;2023-04-04T02:54:36;102135.35;;;-3.05;87.31
68077;BME280;54866;53.458;14.540;2023-04-04T02:57:06;102137.06;;;-3.11;87.53
68077;BME280;54866;53.458;14.540;2023-04-04T02:59:35;102137.73;;;-3.15;88.16
68077;BME280;54866;53.458;14.540;2023-04-04T03:02:05;102136.02;;;-3.20;88.38
68077;BME280;54866;53.458;14.540;2023-04-04T03:04:35;102137.55;;;-3.23;88.35
68077;BME280;54866;53.458;14.540;2023-04-04T03:07:05;102135.15;;;-3.27;88.53
68077;BME280;54866;53.458;14.540;2023-04-04T03:09:35;102134.60;;;-3.31;88.74
68077;BME280;54866;53.458;14.540;2023-04-04T03:12:04;102133.73;;;-3.36;88.85
68077;BME280;54866;53.458;14.540;2023-04-04T03:14:34;102127.88;;;-3.40;89.34
68077;BME280;54866;53.458;14.540;2023-04-04T03:17:04;102125.64;;;-3.43;89.56
68077;BME280;54866;53.458;14.540;2023-04-04T03:19:34;102120.62;;;-3.48;89.75
68077;BME280;54866;53.458;14.540;2023-04-04T03:22:04;102118.88;;;-3.49;89.93
68077;BME280;54866;53.458;14.540;2023-04-04T03:24:33;102114.40;;;-3.52;90.30
68077;BME280;54866;53.458;14.540;2023-04-04T03:27:03;102117.49;;;-3.52;90.74
68077;BME280;54866;53.458;14.540;2023-04-04T03:29:33;102116.30;;;-3.52;91.05
68077;BME280;54866;53.458;14.540;2023-04-04T03:32:02;102109.74;;;-3.54;91.28
68077;BME280;54866;53.458;14.540;2023-04-04T03:34:32;102108.20;;;-3.52;91.58
68077;BME280;54866;53.458;14.540;2023-04-04T03:37:01;102104.40;;;-3.52;91.79
68077;BME280;54866;53.458;14.540;2023-04-04T03:39:31;102100.44;;;-3.52;91.95
68077;BME280;54866;53.458;14.540;2023-04-04T03:42:01;102102.52;;;-3.53;91.99
68077;BME280;54866;53.458;14.540;2023-04-04T03:44:30;102097.34;;;-3.55;92.10
68077;BME280;54866;53.458;14.540;2023-04-04T03:47:00;102098.02;;;-3.56;92.17
68077;BME280;54866;53.458;14.540;2023-04-04T03:49:29;102096.30;;;-3.58;92.24
68077;BME280;54866;53.458;14.540;2023-04-04T03:52:00;102095.79;;;-3.57;92.63
68077;BME280;54866;53.458;14.540;2023-04-04T03:54:30;102092.00;;;-3.59;92.85
68077;BME280;54866;53.458;14.540;2023-04-04T03:57:00;102085.80;;;-3.59;92.88
68077;BME280;54866;53.458;14.540;2023-04-04T03:59:30;102084.77;;;-3.59;93.19
68077;BME280;54866;53.458;14.540;2023-04-04T04:02:00;102082.35;;;-3.58;93.50
68077;BME280;54866;53.458;14.540;2023-04-04T04:04:29;102077.35;;;-3.56;93.85
68077;BME280;54866;53.458;14.540;2023-04-04T04:06:59;102077.52;;;-3.53;93.97
68077;BME280;54866;53.458;14.540;2023-04-04T04:09:29;102080.13;;;-3.48;94.30
68077;BME280;54866;53.458;14.540;2023-04-04T04:11:59;102074.29;;;-3.41;94.67
68077;BME280;54866;53.458;14.540;2023-04-04T04:14:28;102072.39;;;-3.37;94.53
68077;BME280;54866;53.458;14.540;2023-04-04T04:16:58;102070.67;;;-3.35;94.34
68077;BME280;54866;53.458;14.540;2023-04-04T04:19:27;102065.66;;;-3.34;94.28
68077;BME280;54866;53.458;14.540;2023-04-04T04:21:57;102065.48;;;-3.34;93.97
68077;BME280;54866;53.458;14.540;2023-04-04T04:24:26;102064.80;;;-3.33;94.04
68077;BME280;54866;53.458;14.540;2023-04-04T04:26:56;102065.66;;;-3.32;94.05
68077;BME280;54866;53.458;14.540;2023-04-04T04:29:25;102067.20;;;-3.33;93.94
68077;BME280;54866;53.458;14.540;2023-04-04T04:31:55;102067.39;;;-3.32;93.92
68077;BME280;54866;53.458;14.540;2023-04-04T04:34:25;102061.70;;;-3.32;93.88
68077;BME280;54866;53.458;14.540;2023-04-04T04:36:54;102060.33;;;-3.31;94.00
68077;BME280;54866;53.458;14.540;2023-04-04T04:39:25;102060.00;;;-3.29;94.00
68077;BME280;54866;53.458;14.540;2023-04-04T04:41:54;102061.73;;;-3.25;94.10
68077;BME280;54866;53.458;14.540;2023-04-04T04:44:24;102060.52;;;-3.22;94.13
68077;BME280;54866;53.458;14.540;2023-04-04T04:46:54;102057.23;;;-3.19;93.90
68077;BME280;54866;53.458;14.540;2023-04-04T04:49:24;102057.23;;;-3.15;93.97
68077;BME280;54866;53.458;14.540;2023-04-04T04:51:53;102052.77;;;-3.12;93.80
68077;BME280;54866;53.458;14.540;2023-04-04T04:54:23;102047.09;;;-3.09;93.73
68077;BME280;54866;53.458;14.540;2023-04-04T04:56:52;102045.70;;;-3.05;93.61
68077;BME280;54866;53.458;14.540;2023-04-04T04:59:22;102043.09;;;-2.99;93.55
68077;BME280;54866;53.458;14.540;2023-04-04T05:01:51;102041.55;;;-2.93;93.51
68077;BME280;54866;53.458;14.540;2023-04-04T05:04:21;102042.92;;;-2.87;93.30
68077;BME280;54866;53.458;14.540;2023-04-04T05:06:50;102043.94;;;-2.81;93.22
68077;BME280;54866;53.458;14.540;2023-04-04T05:09:21;102047.90;;;-2.72;93.08
68077;BME280;54866;53.458;14.540;2023-04-04T05:11:50;102046.49;;;-2.64;92.88
68077;BME280;54866;53.458;14.540;2023-04-04T05:14:20;102041.14;;;-2.55;92.66
68077;BME280;54866;53.458;14.540;2023-04-04T05:16:49;102045.77;;;-1.74;92.64
68077;BME280;54866;53.458;14.540;2023-04-04T05:19:19;102040.13;;;0.16;90.96
68077;BME280;54866;53.458;14.540;2023-04-04T05:21:49;102038.52;;;2.00;86.51
68077;BME280;54866;53.458;14.540;2023-04-04T05:24:19;102034.14;;;3.58;82.05
68077;BME280;54866;53.458;14.540;2023-04-04T05:26:50;102038.02;;;5.15;78.40
68077;BME280;54866;53.458;14.540;2023-04-04T05:29:19;102033.52;;;6.65;74.42
68077;BME280;54866;53.458;14.540;2023-04-04T05:31:49;102030.98;;;7.92;70.32
68077;BME280;54866;53.458;14.540;2023-04-04T05:34:18;102027.42;;;9.14;66.73
68077;BME280;54866;53.458;14.540;2023-04-04T05:36:48;102021.48;;;10.35;63.21
68077;BME280;54866;53.458;14.540;2023-04-04T05:39:17;102018.70;;;11.43;59.32
68077;BME280;54866;53.458;14.540;2023-04-04T05:41:47;102017.61;;;12.45;54.64
68077;BME280;54866;53.458;14.540;2023-04-04T05:44:17;102018.55;;;13.37;51.52
68077;BME280;54866;53.458;14.540;2023-04-04T05:46:46;102014.10;;;14.35;49.21
68077;BME280;54866;53.458;14.540;2023-04-04T05:49:16;102012.26;;;15.26;46.31
68077;BME280;54866;53.458;14.540;2023-04-04T05:51:45;102008.98;;;16.04;43.85
68077;BME280;54866;53.458;14.540;2023-04-04T05:54:15;102009.73;;;16.84;42.03
68077;BME280;54866;53.458;14.540;2023-04-04T05:56:44;102002.70;;;17.43;37.53
68077;BME280;54866;53.458;14.540;2023-04-04T05:59:14;102004.23;;;17.71;35.89
68077;BME280;54866;53.458;14.540;2023-04-04T06:01:44;102004.48;;;17.98;35.11
68077;BME280;54866;53.458;14.540;2023-04-04T06:04:14;102004.89;;;18.45;34.83
68077;BME280;54866;53.458;14.540;2023-04-04T06:06:44;101999.84;;;19.04;33.52
68077;BME280;54866;53.458;14.540;2023-04-04T06:09:13;101998.95;;;19.43;31.38
68077;BME280;54866;53.458;14.540;2023-04-04T06:11:43;102000.67;;;19.35;30.34
68077;BME280;54866;53.458;14.540;2023-04-04T06:14:13;102002.52;;;19.40;29.78
68077;BME280;54866;53.458;14.540;2023-04-04T06:16:42;102000.48;;;19.48;29.88
68077;BME280;54866;53.458;14.540;2023-04-04T06:19:13;102003.35;;;19.91;30.73
68077;BME280;54866;53.458;14.540;2023-04-04T06:21:43;102003.45;;;20.66;29.42
68077;BME280;54866;53.458;14.540;2023-04-04T06:24:13;102001.43;;;21.02;28.04
68077;BME280;54866;53.458;14.540;2023-04-04T06:26:42;102001.41;;;20.93;27.18
68077;BME280;54866;53.458;14.540;2023-04-04T06:29:13;102000.61;;;20.93;26.51
68077;BME280;54866;53.458;14.540;2023-04-04T06:31:42;102003.62;;;20.72;26.63
68077;BME280;54866;53.458;14.540;2023-04-04T06:34:12;101995.55;;;20.91;26.95
68077;BME280;54866;53.458;14.540;2023-04-04T06:36:42;101992.91;;;21.33;25.86
68077;BME280;54866;53.458;14.540;2023-04-04T06:39:11;101990.52;;;21.61;25.42
68077;BME280;54866;53.458;14.540;2023-04-04T06:41:41;101986.72;;;22.55;25.17
68077;BME280;54866;53.458;14.540;2023-04-04T06:44:10;101986.80;;;23.31;23.70
68077;BME280;54866;53.458;14.540;2023-04-04T06:46:40;101979.70;;;23.29;24.79
68077;BME280;54866;53.458;14.540;2023-04-04T06:49:10;101978.92;;;23.21;23.83
68077;BME280;54866;53.458;14.540;2023-04-04T06:51:40;101976.09;;;22.83;24.44
68077;BME280;54866;53.458;14.540;2023-04-04T06:54:10;101980.64;;;23.22;24.47
68077;BME280;54866;53.458;14.540;2023-04-04T06:56:39;101977.89;;;23.67;23.74
68077;BME280;54866;53.458;14.540;2023-04-04T06:59:09;101983.63;;;23.77;22.99
68077;BME280;54866;53.458;14.540;2023-04-04T07:01:39;101984.96;;;23.69;23.17
68077;BME280;54866;53.458;14.540;2023-04-04T07:04:09;101983.66;;;23.73;23.13
68077;BME280;54866;53.458;14.540;2023-04-04T07:06:38;101986.25;;;24.12;23.12
68077;BME280;54866;53.458;14.540;2023-04-04T07:09:09;101984.86;;;24.47;22.62
68077;BME280;54866;53.458;14.540;2023-04-04T07:11:39;101979.86;;;24.56;22.46
68077;BME280;54866;53.458;14.540;2023-04-04T07:14:09;101979.36;;;24.65;22.10
68077;BME280;54866;53.458;14.540;2023-04-04T07:16:38;101980.34;;;24.59;21.77
68077;BME280;54866;53.458;14.540;2023-04-04T07:19:08;101979.46;;;24.73;21.86
68077;BME280;54866;53.458;14.540;2023-04-04T07:21:37;101972.39;;;24.85;21.86
68077;BME280;54866;53.458;14.540;2023-04-04T07:24:07;101969.84;;;25.01;21.44
68077;BME280;54866;53.458;14.540;2023-04-04T07:26:37;101971.23;;;25.07;21.36
68077;BME280;54866;53.458;14.540;2023-04-04T07:29:08;101966.91;;;25.18;20.93
68077;BME280;54866;53.458;14.540;2023-04-04T07:31:37;101967.11;;;25.02;21.01
68077;BME280;54866;53.458;14.540;2023-04-04T07:34:07;101972.04;;;24.97;20.91
68077;BME280;54866;53.458;14.540;2023-04-04T07:36:37;101967.78;;;25.03;20.85
68077;BME280;54866;53.458;14.540;2023-04-04T07:39:06;101968.91;;;25.32;21.16
68077;BME280;54866;53.458;14.540;2023-04-04T07:41:36;101967.41;;;25.75;20.42
68077;BME280;54866;53.458;14.540;2023-04-04T07:44:06;101965.46;;;25.80;20.15
68077;BME280;54866;53.458;14.540;2023-04-04T07:46:35;101964.36;;;26.02;20.63
68077;BME280;54866;53.458;14.540;2023-04-04T07:49:05;101962.80;;;26.47;20.04
68077;BME280;54866;53.458;14.540;2023-04-04T07:51:35;101961.48;;;26.48;19.53
68077;BME280;54866;53.458;14.540;2023-04-04T07:54:05;101963.77;;;26.40;19.62
68077;BME280;54866;53.458;14.540;2023-04-04T07:56:35;101961.28;;;25.99;19.92
68077;BME280;54866;53.458;14.540;2023-04-04T07:59:04;101964.60;;;25.78;19.65
68077;BME280;54866;53.458;14.540;2023-04-04T08:01:34;101968.45;;;24.02;21.03
68077;BME280;54866;53.458;14.540;2023-04-04T08:04:04;101963.31;;;24.09;21.34
68077;BME280;54866;53.458;14.540;2023-04-04T08:06:34;101960.91;;;24.73;20.52
68077;BME280;54866;53.458;14.540;2023-04-04T08:09:04;101951.16;;;25.43;19.87
68077;BME280;54866;53.458;14.540;2023-04-04T08:11:33;101954.09;;;25.80;18.89
68077;BME280;54866;53.458;14.540;2023-04-04T08:14:04;101945.88;;;25.55;18.73
68077;BME280;54866;53.458;14.540;2023-04-04T08:16:33;101947.67;;;25.99;18.77
68077;BME280;54866;53.458;14.540;2023-04-04T08:19:03;101938.52;;;26.79;17.94
68077;BME280;54866;53.458;14.540;2023-04-04T08:21:34;101942.96;;;27.16;17.41
68077;BME280;54866;53.458;14.540;2023-04-04T08:24:04;101938.98;;;27.31;18.00
68077;BME280;54866;53.458;14.540;2023-04-04T08:26:33;101936.33;;;27.78;16.24
68077;BME280;54866;53.458;14.540;2023-04-04T08:29:03;101935.14;;;27.59;16.08
68077;BME280;54866;53.458;14.540;2023-04-04T08:31:32;101936.89;;;26.84;16.68
68077;BME280;54866;53.458;14.540;2023-04-04T08:34:02;101944.48;;;24.55;17.42
68077;BME280;54866;53.458;14.540;2023-04-04T08:36:33;101947.48;;;22.18;19.09
68077;BME280;54866;53.458;14.540;2023-04-04T08:39:03;101952.91;;;20.98;20.18
68077;BME280;54866;53.458;14.540;2023-04-04T08:41:33;101946.17;;;22.15;19.62
68077;BME280;54866;53.458;14.540;2023-04-04T08:44:03;101943.10;;;23.10;18.42
68077;BME280;54866;53.458;14.540;2023-04-04T08:46:35;101938.39;;;22.49;17.77
68077;BME280;54866;53.458;14.540;2023-04-04T08:49:05;101940.31;;;22.10;18.24
68077;BME280;54866;53.458;14.540;2023-04-04T08:51:35;101941.24;;;20.78;19.27
68077;BME280;54866;53.458;14.540;2023-04-04T08:54:07;101945.83;;;18.66;20.83
68077;BME280;54866;53.458;14.540;2023-04-04T08:56:37;101948.13;;;16.81;22.06
68077;BME280;54866;53.458;14.540;2023-04-04T08:59:07;101949.45;;;16.14;23.35
68077;BME280;54866;53.458;14.540;2023-04-04T09:01:38;101938.23;;;17.73;22.65
68077;BME280;54866;53.458;14.540;2023-04-04T09:04:09;101935.91;;;18.42;22.22
68077;BME280;54866;53.458;14.540;2023-04-04T09:06:39;101932.33;;;18.75;21.94
68077;BME280;54866;53.458;14.540;2023-04-04T09:09:09;101926.90;;;19.36;21.58
68077;BME280;54866;53.458;14.540;2023-04-04T09:11:39;101927.62;;;18.31;22.28
68077;BME280;54866;53.458;14.540;2023-04-04T09:14:09;101936.06;;;16.80;23.95
68077;BME280;54866;53.458;14.540;2023-04-04T09:16:39;101938.69;;;15.82;25.15
68077;BME280;54866;53.458;14.540;2023-04-04T09:19:08;101938.64;;;15.45;25.83
68077;BME280;54866;53.458;14.540;2023-04-04T09:21:38;101935.26;;;16.69;25.05
68077;BME280;54866;53.458;14.540;2023-04-04T09:24:08;101934.09;;;16.02;25.49
68077;BME280;54866;53.458;14.540;2023-04-04T09:26:49;101934.06;;;14.83;26.89
68077;BME280;54866;53.458;14.540;2023-04-04T09:29:20;101941.05;;;13.72;28.15
68077;BME280;54866;53.458;14.540;2023-04-04T09:31:50;101938.59;;;13.19;28.97
68077;BME280;54866;53.458;14.540;2023-04-04T09:34:20;101936.94;;;13.85;28.44
68077;BME280;54866;53.458;14.540;2023-04-04T09:36:50;101928.23;;;15.95;26.84
68077;BME280;54866;53.458;14.540;2023-04-04T09:39:22;101923.72;;;17.76;25.01
68077;BME280;54866;53.458;14.540;2023-04-04T09:41:52;101921.65;;;17.57;24.68
68077;BME280;54866;53.458;14.540;2023-04-04T09:44:21;101926.85;;;15.94;25.61
68077;BME280;54866;53.458;14.540;2023-04-04T09:46:53;101928.80;;;14.49;26.94
68077;BME280;54866;53.458;14.540;2023-04-04T09:49:34;101929.61;;;13.10;28.15
68077;BME280;54866;53.458;14.540;2023-04-04T09:52:04;101935.52;;;12.31;29.40
68077;BME280;54866;53.458;14.540;2023-04-04T09:54:35;101929.85;;;13.71;28.76
68077;BME280;54866;53.458;14.540;2023-04-04T09:57:05;101921.98;;;16.00;27.03
68077;BME280;54866;53.458;14.540;2023-04-04T09:59:36;101911.48;;;17.29;24.78
68077;BME280;54866;53.458;14.540;2023-04-04T10:02:07;101914.24;;;16.01;25.04
68077;BME280;54866;53.458;14.540;2023-04-04T10:04:38;101913.30;;;14.45;25.88
68077;BME280;54866;53.458;14.540;2023-04-04T10:07:11;101915.58;;;13.21;27.34
68077;BME280;54866;53.458;14.540;2023-04-04T10:09:41;101916.11;;;12.95;28.39
68077;BME280;54866;53.458;14.540;2023-04-04T10:12:11;101904.23;;;14.27;27.62
68077;BME280;54866;53.458;14.540;2023-04-04T10:14:41;101898.76;;;14.88;26.99
68077;BME280;54866;53.458;14.540;2023-04-04T10:17:11;101902.61;;;14.49;27.06
68077;BME280;54866;53.458;14.540;2023-04-04T10:19:41;101899.27;;;13.64;27.54
68077;BME280;54866;53.458;14.540;2023-04-04T10:22:11;101906.67;;;12.78;28.21
68077;BME280;54866;53.458;14.540;2023-04-04T10:24:42;101904.30;;;13.12;28.62
68077;BME280;54866;53.458;14.540;2023-04-04T10:27:12;101895.40;;;14.73;27.12
68077;BME280;54866;53.458;14.540;2023-04-04T10:29:41;101888.02;;;16.23;25.10
68077;BME280;54866;53.458;14.540;2023-04-04T10:32:19;101883.05;;;16.85;23.51
68077;BME280;54866;53.458;14.540;2023-04-04T10:34:56;101879.63;;;17.49;23.67
68077;BME280;54866;53.458;14.540;2023-04-04T10:37:33;101880.21;;;16.95;24.09
68077;BME280;54866;53.458;14.540;2023-04-04T10:40:11;101884.31;;;15.78;25.19
68077;BME280;54866;53.458;14.540;2023-04-04T10:42:43;101881.99;;;14.54;26.45
68077;BME280;54866;53.458;14.540;2023-04-04T10:45:14;101882.77;;;13.55;27.94
68077;BME280;54866;53.458;14.540;2023-04-04T10:47:45;101885.98;;;12.39;29.17
68077;BME280;54866;53.458;14.540;2023-04-04T10:50:15;101880.08;;;12.43;29.96
68077;BME280;54866;53.458;14.540;2023-04-04T10:52:45;101875.11;;;13.13;29.89
68077;BME280;54866;53.458;14.540;2023-04-04T10:55:15;101862.20;;;14.34;28.85
68077;BME280;54866;53.458;14.540;2023-04-04T10:57:46;101856.69;;;14.25;27.91
68077;BME280;54866;53.458;14.540;2023-04-04T11:00:20;101851.95;;;13.27;28.48
68077;BME280;54866;53.458;14.540;2023-04-04T11:02:55;101853.27;;;12.50;29.41
68077;BME280;54866;53.458;14.540;2023-04-04T11:05:29;101858.44;;;11.77;30.96
68077;BME280;54866;53.458;14.540;2023-04-04T11:08:01;101861.79;;;11.19;32.05
68077;BME280;54866;53.458;14.540;2023-04-04T11:10:32;101860.07;;;10.78;33.08
68077;BME280;54866;53.458;14.540;2023-04-04T11:13:09;101859.19;;;10.66;33.46
68077;BME280;54866;53.458;14.540;2023-04-04T11:15:57;101854.66;;;11.59;32.86
68077;BME280;54866;53.458;14.540;2023-04-04T11:18:51;101842.94;;;12.74;31.54
68077;BME280;54866;53.458;14.540;2023-04-04T11:21:21;101843.59;;;12.85;30.88
68077;BME280;54866;53.458;14.540;2023-04-04T11:24:15;101840.55;;;12.62;30.57
68077;BME280;54866;53.458;14.540;2023-04-04T11:26:44;101839.40;;;12.56;30.66
68077;BME280;54866;53.458;14.540;2023-04-04T11:29:47;101832.50;;;13.02;29.48
68077;BME280;54866;53.458;14.540;2023-04-04T11:32:29;101831.46;;;12.35;30.57
68077;BME280;54866;53.458;14.540;2023-04-04T11:35:05;101835.35;;;11.63;32.05
68077;BME280;54866;53.458;14.540;2023-04-04T11:37:43;101839.23;;;11.07;32.99
68077;BME280;54866;53.458;14.540;2023-04-04T11:40:37;101839.37;;;10.64;33.85
68077;BME280;54866;53.458;14.540;2023-04-04T11:43:12;101831.96;;;10.05;34.83
68077;BME280;54866;53.458;14.540;2023-04-04T11:45:47;101830.07;;;9.67;35.39
68077;BME280;54866;53.458;14.540;2023-04-04T11:48:19;101826.66;;;10.59;34.55
68077;BME280;54866;53.458;14.540;2023-04-04T11:50:49;101819.73;;;11.31;32.44
68077;BME280;54866;53.458;14.540;2023-04-04T11:53:18;101821.16;;;11.72;31.88
68077;BME280;54866;53.458;14.540;2023-04-04T11:55:49;101818.75;;;11.98;31.97
68077;BME280;54866;53.458;14.540;2023-04-04T11:58:20;101815.13;;;12.55;31.70
68077;BME280;54866;53.458;14.540;2023-04-04T12:00:50;101815.82;;;12.83;31.80
68077;BME280;54866;53.458;14.540;2023-04-04T12:03:19;101811.15;;;12.43;31.77
68077;BME280;54866;53.458;14.540;2023-04-04T12:05:50;101815.23;;;11.95;32.68
68077;BME280;54866;53.458;14.540;2023-04-04T12:08:20;101812.34;;;11.66;33.17
68077;BME280;54866;53.458;14.540;2023-04-04T12:10:51;101812.13;;;12.07;32.88
68077;BME280;54866;53.458;14.540;2023-04-04T12:13:26;101802.31;;;12.33;32.22
68077;BME280;54866;53.458;14.540;2023-04-04T12:15:58;101804.11;;;11.87;31.52
68077;BME280;54866;53.458;14.540;2023-04-04T12:18:28;101801.10;;;11.41;31.75
68077;BME280;54866;53.458;14.540;2023-04-04T12:20:57;101798.83;;;10.76;32.94
68077;BME280;54866;53.458;14.540;2023-04-04T12:23:31;101802.48;;;10.00;34.87
68077;BME280;54866;53.458;14.540;2023-04-04T12:26:01;101805.36;;;9.30;35.88
68077;BME280;54866;53.458;14.540;2023-04-04T12:28:33;101803.13;;;8.91;37.13
68077;BME280;54866;53.458;14.540;2023-04-04T12:31:05;101799.48;;;8.57;38.33
68077;BME280;54866;53.458;14.540;2023-04-04T12:33:35;101799.90;;;8.28;39.75
68077;BME280;54866;53.458;14.540;2023-04-04T12:36:06;101793.79;;;8.13;40.30
68077;BME280;54866;53.458;14.540;2023-04-04T12:38:53;101786.64;;;8.74;40.95
68077;BME280;54866;53.458;14.540;2023-04-04T12:41:24;101781.20;;;8.77;38.96
68077;BME280;54866;53.458;14.540;2023-04-04T12:44:00;101779.83;;;8.63;37.63
68077;BME280;54866;53.458;14.540;2023-04-04T12:46:36;101777.86;;;8.43;35.83
68077;BME280;54866;53.458;14.540;2023-04-04T12:49:09;101776.09;;;8.22;37.03
68077;BME280;54866;53.458;14.540;2023-04-04T12:51:39;101773.45;;;8.06;38.29
68077;BME280;54866;53.458;14.540;2023-04-04T12:54:26;101766.25;;;8.33;38.22
68077;BME280;54866;53.458;14.540;2023-04-04T12:56:57;101762.75;;;8.93;37.76
68077;BME280;54866;53.458;14.540;2023-04-04T12:59:30;101754.41;;;9.32;37.40